createdAt,value
2022-08-05T00:02:07.588Z,22.91
2022-08-05T00:04:37.916Z,23.03
2022-08-05T00:07:27.114Z,23.22
2022-08-05T00:09:53.395Z,23.13
2022-08-05T00:12:21.270Z,22.94
2022-08-05T00:14:48.604Z,22.86
2022-08-05T00:17:19.576Z,22.88
2022-08-05T00:20:02.166Z,23.02
2022-08-05T00:22:29.395Z,23.07
2022-08-05T00:24:57.636Z,22.99
2022-08-05T00:27:35.939Z,22.93
2022-08-05T00:30:04.619Z,23.09
2022-08-05T00:32:31.388Z,23.22
2022-08-05T00:35:06.188Z,23.17
2022-08-05T00:37:51.222Z,23.67
2022-08-05T00:40:26.767Z,24.62
2022-08-05T00:42:57.430Z,25.30
2022-08-05T00:45:39.009Z,25.50
2022-08-05T00:48:14.803Z,25.46
2022-08-05T00:50:44.163Z,25.44
2022-08-05T00:53:45.320Z,25.42
2022-08-05T00:55:58.954Z,25.37
2022-08-05T00:58:27.580Z,25.32
2022-08-05T01:00:54.696Z,25.28
2022-08-05T01:03:22.514Z,25.22
2022-08-05T01:05:51.209Z,25.19
2022-08-05T01:08:42.323Z,25.15
2022-08-05T01:11:37.395Z,25.13
2022-08-05T01:14:11.774Z,25.12
2022-08-05T01:16:59.921Z,25.06
2022-08-05T01:20:01.682Z,25.01
2022-08-05T01:22:38.213Z,24.96
2022-08-05T01:25:19.510Z,24.99
2022-08-05T01:27:58.421Z,24.85
2022-08-05T01:30:34.734Z,24.83
2022-08-05T01:33:08.204Z,24.76
2022-08-05T01:35:51.085Z,24.65
2022-08-05T01:38:24.803Z,24.65
2022-08-05T01:40:58.699Z,24.60
2022-08-05T01:43:27.794Z,24.69
2022-08-05T01:45:56.891Z,24.66
2022-08-05T01:48:26.918Z,24.54
2022-08-05T01:50:56.701Z,24.39
2022-08-05T01:53:57.723Z,24.42
2022-08-05T01:58:10.383Z,24.52
2022-08-05T01:59:06.467Z,24.41
2022-08-05T02:01:39.862Z,24.23
2022-08-05T02:04:10.317Z,23.98
2022-08-05T02:06:39.111Z,23.97
2022-08-05T02:09:07.211Z,23.81
2022-08-05T02:11:52.182Z,23.90
2022-08-05T02:14:27.592Z,23.90
2022-08-05T02:16:56.937Z,23.76
2022-08-05T02:19:25.065Z,23.48
2022-08-05T02:21:59.513Z,23.36
2022-08-05T02:24:31.736Z,23.32
2022-08-05T02:27:10.163Z,23.24
2022-08-05T02:29:58.542Z,23.04
2022-08-05T02:32:30.828Z,22.82
2022-08-05T02:35:02.166Z,22.56
2022-08-05T02:37:42.981Z,22.35
2022-08-05T02:40:19.533Z,22.41
2022-08-05T02:42:53.075Z,22.50
2022-08-05T02:45:24.112Z,22.20
2022-08-05T02:48:09.917Z,22.28
2022-08-05T02:50:45.927Z,21.91
2022-08-05T02:53:16.193Z,21.81
2022-08-05T02:55:53.983Z,21.84
2022-08-05T02:58:27.616Z,21.80
2022-08-05T03:00:58.993Z,21.67
2022-08-05T03:03:28.430Z,21.75
2022-08-05T03:06:55.673Z,21.79
2022-08-05T03:08:52.218Z,21.80
2022-08-05T03:11:54.998Z,21.59
2022-08-05T03:14:13.532Z,21.66
2022-08-05T03:16:40.398Z,21.67
2022-08-05T03:19:17.143Z,21.37
2022-08-05T03:21:53.373Z,21.36
2022-08-05T03:24:29.297Z,21.34
2022-08-05T03:26:58.111Z,21.31
2022-08-05T03:29:24.627Z,21.41
2022-08-05T03:32:11.648Z,21.41
2022-08-05T03:34:38.676Z,21.23
2022-08-05T03:37:06.737Z,21.11
2022-08-05T03:39:38.105Z,20.94
2022-08-05T03:42:13.794Z,20.92
2022-08-05T03:44:42.537Z,20.60
2022-08-05T03:47:09.006Z,20.67
2022-08-05T03:49:51.808Z,20.48
2022-08-05T03:52:50.257Z,20.63
2022-08-05T03:56:05.867Z,20.68
2022-08-05T03:58:04.465Z,20.83
2022-08-05T04:00:32.390Z,20.88
2022-08-05T04:03:02.942Z,21.01
2022-08-05T04:05:34.566Z,20.90
2022-08-05T04:08:14.837Z,20.80
2022-08-05T04:10:55.444Z,20.84
2022-08-05T04:13:22.274Z,21.03
2022-08-05T04:15:52.874Z,20.97
2022-08-05T04:18:30.287Z,20.72
2022-08-05T04:20:57.930Z,20.85
2022-08-05T04:23:57.296Z,20.93
2022-08-05T04:26:14.615Z,21.07
2022-08-05T04:28:51.372Z,21.06
2022-08-05T04:31:19.683Z,20.87
2022-08-05T04:34:18.673Z,20.87
2022-08-05T04:36:45.295Z,20.94
2022-08-05T04:39:15.990Z,21.11
2022-08-05T04:41:42.507Z,21.27
2022-08-05T04:44:10.862Z,21.36
2022-08-05T04:46:38.606Z,21.21
2022-08-05T04:49:12.324Z,21.15
2022-08-05T04:51:45.134Z,21.28
2022-08-05T04:54:12.326Z,21.51
2022-08-05T04:56:39.248Z,21.95
2022-08-05T04:59:22.192Z,22.23
2022-08-05T05:02:35.222Z,22.47
2022-08-05T05:04:38.281Z,22.81
2022-08-05T05:07:10.543Z,23.05
2022-08-05T05:09:37.427Z,23.26
2022-08-05T05:12:06.321Z,23.44
2022-08-05T05:14:36.285Z,23.62
2022-08-05T05:17:03.385Z,23.69
2022-08-05T05:19:36.857Z,23.73
2022-08-05T05:22:23.590Z,23.81
2022-08-05T05:24:57.899Z,23.80
2022-08-05T05:27:41.323Z,23.85
2022-08-05T05:30:15.445Z,23.73
2022-08-05T05:32:55.488Z,23.72
2022-08-05T05:35:22.937Z,23.79
2022-08-05T05:37:59.432Z,23.74
2022-08-05T05:40:28.482Z,23.79
2022-08-05T05:42:55.369Z,23.60
2022-08-05T05:45:23.195Z,23.62
2022-08-05T05:48:05.536Z,23.60
2022-08-05T05:50:35.678Z,23.57
2022-08-05T05:53:21.226Z,23.44
2022-08-05T05:55:52.310Z,23.51
2022-08-05T05:58:32.105Z,23.64
2022-08-05T06:01:12.479Z,23.66
2022-08-05T06:04:00.614Z,23.70
2022-08-05T06:06:31.005Z,23.95
2022-08-05T06:09:00.103Z,24.21
2022-08-05T06:11:26.582Z,23.98
2022-08-05T06:13:55.878Z,24.21
2022-08-05T06:16:30.850Z,24.29
2022-08-05T06:19:02.073Z,24.48
2022-08-05T06:21:35.670Z,24.70
2022-08-05T06:24:03.157Z,24.84
2022-08-05T06:26:33.851Z,25.15
2022-08-05T06:29:03.513Z,25.04
2022-08-05T06:31:48.068Z,25.26
2022-08-05T06:34:17.513Z,25.32
2022-08-05T06:36:58.067Z,25.29
2022-08-05T06:39:27.365Z,25.30
2022-08-05T06:41:58.695Z,25.26
2022-08-05T06:44:25.612Z,25.37
2022-08-05T06:46:52.717Z,25.26
2022-08-05T06:49:50.577Z,25.18
2022-08-05T06:52:07.763Z,24.99
2022-08-05T06:54:54.232Z,25.03
2022-08-05T06:57:57.565Z,25.12
2022-08-05T07:00:09.834Z,25.32
2022-08-05T07:02:43.842Z,25.50
2022-08-05T07:05:14.340Z,25.61
2022-08-05T07:07:48.739Z,25.63
2022-08-05T07:10:16.376Z,25.68
2022-08-05T07:13:02.109Z,25.76
2022-08-05T07:16:01.644Z,25.69
2022-08-05T07:18:31.856Z,25.38
2022-08-05T07:20:58.631Z,25.30
2022-08-05T07:23:31.437Z,25.33
2022-08-05T07:25:57.981Z,25.15
2022-08-05T07:28:25.193Z,25.29
2022-08-05T07:30:54.794Z,25.39
2022-08-05T07:33:35.262Z,25.52
2022-08-05T07:36:21.246Z,25.44
2022-08-05T07:38:48.993Z,25.53
2022-08-05T07:42:13.039Z,25.44
2022-08-05T07:44:12.159Z,25.47
2022-08-05T07:46:48.281Z,25.64
2022-08-05T07:49:18.196Z,25.62
2022-08-05T07:51:53.976Z,25.29
2022-08-05T07:54:31.355Z,25.46
2022-08-05T07:57:41.997Z,25.55
2022-08-05T07:59:51.353Z,25.52
2022-08-05T08:02:18.265Z,25.68
2022-08-05T08:04:46.938Z,25.75
2022-08-05T08:07:13.891Z,25.52
2022-08-05T08:09:41.713Z,25.40
2022-08-05T08:12:27.486Z,25.64
2022-08-05T08:14:54.863Z,25.72
2022-08-05T08:17:21.866Z,25.76
2022-08-05T08:20:43.690Z,25.72
2022-08-05T08:22:35.488Z,25.67
2022-08-05T08:25:03.449Z,25.75
2022-08-05T08:27:40.419Z,25.98
2022-08-05T08:30:29.976Z,26.23
2022-08-05T08:33:02.733Z,26.47
2022-08-05T08:35:34.795Z,26.56
2022-08-05T08:38:01.918Z,26.47
2022-08-05T08:40:29.902Z,26.20
2022-08-05T08:42:58.023Z,26.29
2022-08-05T08:45:46.077Z,26.32
2022-08-05T08:48:36.121Z,26.33
2022-08-05T08:52:01.730Z,26.44
2022-08-05T08:53:50.110Z,26.59
2022-08-05T08:56:19.296Z,26.53
2022-08-05T08:58:48.949Z,26.62
2022-08-05T09:01:18.505Z,26.69
2022-08-05T09:03:54.270Z,26.69
2022-08-05T09:06:29.463Z,26.79
2022-08-05T09:08:58.727Z,26.66
2022-08-05T09:11:52.076Z,26.40
2022-08-05T09:14:59.038Z,26.57
2022-08-05T09:17:09.433Z,26.84
2022-08-05T09:20:01.712Z,27.02
2022-08-05T09:22:31.767Z,27.01
2022-08-05T09:25:00.628Z,26.95
2022-08-05T09:28:04.107Z,26.83
2022-08-05T09:30:23.451Z,26.81
2022-08-05T09:32:50.555Z,26.99
2022-08-05T09:35:26.282Z,27.24
2022-08-05T09:38:12.009Z,27.52
2022-08-05T09:40:51.970Z,27.74
2022-08-05T09:43:41.255Z,27.42
2022-08-05T09:46:35.037Z,27.47
2022-08-05T09:49:18.937Z,27.61
2022-08-05T09:51:48.893Z,27.77
2022-08-05T09:54:28.918Z,27.97
2022-08-05T09:56:55.914Z,28.01
2022-08-05T09:59:24.486Z,28.07
2022-08-05T10:01:58.016Z,28.21
2022-08-05T10:04:35.757Z,28.29
2022-08-05T10:07:19.672Z,28.38
2022-08-05T10:10:14.228Z,28.36
2022-08-05T10:12:55.012Z,28.31
2022-08-05T10:15:27.600Z,28.49
2022-08-05T10:18:12.884Z,28.41
2022-08-05T10:21:06.091Z,28.51
2022-08-05T10:23:59.529Z,28.80
2022-08-05T10:26:31.593Z,29.03
2022-08-05T10:28:59.720Z,29.13
2022-08-05T10:32:52.053Z,28.89
2022-08-05T10:34:13.634Z,29.03
2022-08-05T10:36:42.053Z,29.11
2022-08-05T10:39:14.956Z,29.19
2022-08-05T10:42:02.320Z,28.95
2022-08-05T10:44:32.242Z,29.18
2022-08-05T10:46:59.306Z,29.09
2022-08-05T10:49:33.374Z,29.23
2022-08-05T10:52:47.022Z,29.53
2022-08-05T10:55:18.498Z,29.45
2022-08-05T10:57:46.169Z,29.53
2022-08-05T11:00:23.115Z,29.44
2022-08-05T11:03:23.785Z,29.36
2022-08-05T11:06:16.276Z,29.35
2022-08-05T11:09:16.431Z,29.63
2022-08-05T11:11:53.469Z,29.65
2022-08-05T11:15:01.026Z,29.82
2022-08-05T11:17:59.859Z,29.89
2022-08-05T11:20:41.731Z,30.11
2022-08-05T11:23:33.558Z,30.23
2022-08-05T11:26:28.690Z,30.26
2022-08-05T11:29:06.568Z,30.57
2022-08-05T11:31:57.608Z,30.63
2022-08-05T11:34:51.738Z,30.85
2022-08-05T11:38:37.005Z,30.54
2022-08-05T11:41:03.410Z,30.88
2022-08-05T11:44:06.252Z,31.02
2022-08-05T11:46:58.276Z,30.88
2022-08-05T11:49:26.865Z,30.99
2022-08-05T11:51:54.852Z,30.78
2022-08-05T11:54:33.114Z,30.67
2022-08-05T11:57:08.325Z,30.48
2022-08-05T11:59:50.200Z,30.63
2022-08-05T12:02:24.269Z,30.77
2022-08-05T12:05:06.968Z,30.93
2022-08-05T12:08:07.309Z,31.08
2022-08-05T12:10:43.533Z,31.30
2022-08-05T12:13:47.259Z,31.41
2022-08-05T12:16:17.467Z,31.43
2022-08-05T12:18:52.105Z,31.35
2022-08-05T12:21:31.857Z,31.36
2022-08-05T12:24:14.018Z,31.32
2022-08-05T12:26:45.202Z,31.09
2022-08-05T12:29:23.635Z,30.91
2022-08-05T12:31:53.166Z,30.95
2022-08-05T12:34:23.919Z,30.98
2022-08-05T12:36:53.634Z,31.09
2022-08-05T12:39:20.884Z,31.10
2022-08-05T12:41:48.784Z,31.26
2022-08-05T12:44:28.634Z,31.25
2022-08-05T12:47:01.986Z,31.55
2022-08-05T12:50:04.221Z,31.60
2022-08-05T12:52:39.230Z,31.51
2022-08-05T12:55:25.435Z,31.44
2022-08-05T12:58:50.147Z,31.72
2022-08-05T13:02:03.464Z,31.82
2022-08-05T13:03:32.198Z,31.76
2022-08-05T13:06:01.504Z,31.56
2022-08-05T13:08:32.278Z,31.85
2022-08-05T13:11:04.312Z,31.44
2022-08-05T13:14:05.669Z,31.52
2022-08-05T13:16:19.515Z,31.47
2022-08-05T13:18:55.026Z,31.65
2022-08-05T13:21:22.020Z,32.04
2022-08-05T13:23:54.500Z,31.99
2022-08-05T13:26:27.253Z,31.38
2022-08-05T13:28:57.328Z,31.53
2022-08-05T13:31:34.018Z,31.37
2022-08-05T13:34:24.964Z,31.86
2022-08-05T13:36:54.021Z,31.28
2022-08-05T13:40:13.438Z,31.52
2022-08-05T13:42:14.470Z,31.43
2022-08-05T13:44:45.889Z,31.44
2022-08-05T13:47:34.724Z,31.58
2022-08-05T13:50:04.664Z,31.44
2022-08-05T13:52:35.359Z,31.09
2022-08-05T13:55:02.929Z,30.95
2022-08-05T13:57:51.412Z,31.07
2022-08-05T14:00:27.482Z,30.83
2022-08-05T14:02:56.066Z,30.97
2022-08-05T14:05:48.278Z,30.88
2022-08-05T14:08:11.115Z,30.50
2022-08-05T14:10:47.697Z,31.43
2022-08-05T14:13:15.339Z,31.52
2022-08-05T14:16:08.646Z,32.06
2022-08-05T14:18:28.601Z,32.31
2022-08-05T14:20:55.395Z,32.87
2022-08-05T14:23:25.650Z,31.83
2022-08-05T14:25:57.793Z,32.60
2022-08-05T14:28:29.894Z,32.65
2022-08-05T14:31:01.498Z,32.95
2022-08-05T14:33:32.575Z,33.08
2022-08-05T14:36:15.092Z,33.12
2022-08-05T14:38:41.610Z,32.82
2022-08-05T14:41:08.233Z,32.96
2022-08-05T14:43:58.863Z,33.33
2022-08-05T14:46:28.087Z,33.20
2022-08-05T14:49:06.680Z,32.89
2022-08-05T14:51:42.475Z,32.18
2022-08-05T14:54:29.977Z,31.86
2022-08-05T14:56:57.010Z,32.07
2022-08-05T14:59:23.599Z,31.89
2022-08-05T15:01:50.377Z,31.40
2022-08-05T15:04:20.658Z,31.22
2022-08-05T15:06:50.049Z,30.40
2022-08-05T15:09:52.867Z,30.86
2022-08-05T15:12:09.063Z,31.33
2022-08-05T15:14:48.356Z,31.54
2022-08-05T15:17:46.124Z,30.76
2022-08-05T15:20:15.648Z,30.80
2022-08-05T15:22:45.328Z,30.78
2022-08-05T15:25:14.005Z,30.43
2022-08-05T15:27:42.949Z,29.75
2022-08-05T15:30:19.329Z,29.31
2022-08-05T15:32:46.261Z,29.13
2022-08-05T15:35:12.884Z,28.85
2022-08-05T15:38:34.708Z,28.60
2022-08-05T15:40:59.836Z,28.68
2022-08-05T15:43:20.454Z,28.72
2022-08-05T15:45:48.006Z,28.42
2022-08-05T15:48:27.056Z,28.10
2022-08-05T15:50:53.539Z,28.94
2022-08-05T15:53:22.821Z,29.66
2022-08-05T15:56:01.485Z,29.05
2022-08-05T15:58:29.924Z,29.47
2022-08-05T16:01:15.749Z,30.00
2022-08-05T16:03:43.537Z,31.00
2022-08-05T16:06:11.495Z,30.57
2022-08-05T16:08:38.557Z,29.14
2022-08-05T16:11:05.296Z,28.69
2022-08-05T16:13:34.207Z,28.34
2022-08-05T16:16:02.021Z,28.64
2022-08-05T16:18:30.037Z,29.34
2022-08-05T16:20:56.515Z,30.37
2022-08-05T16:23:23.069Z,29.91
2022-08-05T16:25:49.871Z,30.10
2022-08-05T16:28:22.454Z,30.14
2022-08-05T16:30:52.042Z,29.85
2022-08-05T16:33:19.409Z,29.59
2022-08-05T16:35:49.898Z,28.60
2022-08-05T16:38:25.229Z,28.87
2022-08-05T16:40:59.687Z,28.40
2022-08-05T16:43:32.672Z,28.20
2022-08-05T16:46:04.071Z,27.67
2022-08-05T16:48:35.808Z,27.78
2022-08-05T16:51:02.533Z,27.60
2022-08-05T16:54:06.230Z,27.34
2022-08-05T16:56:22.748Z,27.02
2022-08-05T16:58:50.354Z,27.25
2022-08-05T17:01:16.916Z,27.25
2022-08-05T17:03:45.487Z,27.28
2022-08-05T17:06:12.708Z,27.40
2022-08-05T17:08:53.329Z,27.38
2022-08-05T17:11:25.147Z,27.49
2022-08-05T17:14:00.655Z,27.48
2022-08-05T17:16:36.139Z,27.55
2022-08-05T17:19:07.073Z,27.48
2022-08-05T17:21:36.212Z,27.11
2022-08-05T17:24:19.778Z,26.98
2022-08-05T17:26:56.092Z,26.64
2022-08-05T17:29:33.749Z,26.64
2022-08-05T17:32:11.875Z,26.19
2022-08-05T17:34:43.575Z,26.11
2022-08-05T17:37:35.884Z,25.95
2022-08-05T17:39:59.848Z,25.82
2022-08-05T17:42:30.118Z,25.49
2022-08-05T17:44:59.397Z,25.39
2022-08-05T17:47:26.683Z,25.59
2022-08-05T17:50:03.503Z,25.36
2022-08-05T17:52:34.703Z,25.39
2022-08-05T17:55:20.758Z,25.08
2022-08-05T17:57:50.039Z,24.96
2022-08-05T18:00:17.538Z,24.89
2022-08-05T18:02:46.664Z,24.81
2022-08-05T18:05:13.779Z,24.65
2022-08-05T18:07:44.426Z,24.90
2022-08-05T18:10:14.121Z,24.24
2022-08-05T18:12:48.929Z,24.35
2022-08-05T18:15:15.545Z,24.13
2022-08-05T18:17:58.811Z,24.23
2022-08-05T18:20:31.904Z,24.31
2022-08-05T18:23:09.164Z,24.24
2022-08-05T18:25:38.948Z,23.92
2022-08-05T18:28:09.410Z,23.78
2022-08-05T18:30:39.183Z,23.69
2022-08-05T18:33:08.378Z,23.83
2022-08-05T18:36:00.774Z,23.89
2022-08-05T18:38:26.317Z,23.69
2022-08-05T18:41:53.250Z,23.57
2022-08-05T18:43:43.024Z,23.61
2022-08-05T18:46:19.719Z,23.66
2022-08-05T18:48:52.341Z,23.66
2022-08-05T18:52:04.447Z,23.52
2022-08-05T18:54:31.329Z,23.56
2022-08-05T18:57:01.138Z,23.73
2022-08-05T18:59:44.229Z,23.72
2022-08-05T19:02:27.948Z,23.55
2022-08-05T19:05:02.354Z,23.60
2022-08-05T19:07:46.021Z,23.55
2022-08-05T19:10:14.688Z,23.47
2022-08-05T19:12:41.448Z,23.44
2022-08-05T19:15:25.251Z,23.24
2022-08-05T19:18:09.163Z,23.16
2022-08-05T19:20:41.314Z,23.02
2022-08-05T19:24:03.588Z,22.11
2022-08-05T19:26:02.070Z,20.62
2022-08-05T19:28:30.714Z,20.15
2022-08-05T19:30:57.480Z,19.73
2022-08-05T19:33:36.255Z,19.66
2022-08-05T19:36:06.948Z,19.41
2022-08-05T19:38:37.077Z,19.21
2022-08-05T19:41:07.373Z,18.82
2022-08-05T19:44:05.805Z,18.71
2022-08-05T19:46:29.017Z,18.94
2022-08-05T19:49:01.295Z,18.94
2022-08-05T19:52:06.062Z,18.96
2022-08-05T19:54:28.468Z,18.84
2022-08-05T19:56:59.108Z,18.93
2022-08-05T19:59:55.859Z,18.86
2022-08-05T20:02:14.469Z,19.01
2022-08-05T20:04:43.032Z,19.12
2022-08-05T20:07:13.827Z,19.20
2022-08-05T20:09:53.653Z,19.08
2022-08-05T20:12:23.453Z,18.96
2022-08-05T20:14:52.045Z,19.10
2022-08-05T20:17:19.891Z,18.98
2022-08-05T20:19:50.854Z,19.25
2022-08-05T20:22:23.943Z,19.11
2022-08-05T20:24:53.859Z,18.92
2022-08-05T20:27:21.016Z,19.07
2022-08-05T20:29:58.210Z,19.11
2022-08-05T20:32:26.701Z,19.46
2022-08-05T20:34:53.484Z,19.62
2022-08-05T20:38:05.892Z,19.61
2022-08-05T20:40:07.405Z,19.83
2022-08-05T20:42:34.518Z,19.80
2022-08-05T20:45:02.563Z,19.89
2022-08-05T20:47:32.240Z,20.01
2022-08-05T20:49:59.571Z,20.08
2022-08-05T20:52:29.368Z,19.60
2022-08-05T20:55:54.215Z,19.28
2022-08-05T20:57:44.250Z,19.21
2022-08-05T21:00:34.982Z,19.45
2022-08-05T21:03:06.942Z,19.40
2022-08-05T21:05:47.690Z,19.33
2022-08-05T21:08:21.316Z,19.09
2022-08-05T21:10:54.846Z,18.72
2022-08-05T21:13:47.019Z,18.77
2022-08-05T21:16:11.895Z,18.92
2022-08-05T21:18:38.591Z,19.08
2022-08-05T21:21:11.969Z,18.90
2022-08-05T21:23:38.964Z,19.05
2022-08-05T21:26:12.363Z,19.07
2022-08-05T21:28:40.141Z,19.07
2022-08-05T21:31:17.314Z,18.91
2022-08-05T21:33:43.811Z,18.98
2022-08-05T21:36:14.538Z,18.99
2022-08-05T21:38:54.750Z,19.03
2022-08-05T21:41:21.409Z,19.03
2022-08-05T21:44:01.769Z,19.21
2022-08-05T21:46:32.172Z,19.28
2022-08-05T21:49:01.642Z,19.19
2022-08-05T21:52:22.856Z,19.22
2022-08-05T21:54:14.915Z,19.17
2022-08-05T21:56:44.566Z,19.10
2022-08-05T21:59:22.596Z,19.18
2022-08-05T22:01:51.578Z,19.10
2022-08-05T22:04:21.309Z,19.07
2022-08-05T22:06:52.595Z,19.09
2022-08-05T22:09:21.037Z,19.04
2022-08-05T22:11:49.142Z,18.92
2022-08-05T22:14:34.218Z,18.92
2022-08-05T22:17:05.072Z,18.92
2022-08-05T22:20:03.575Z,18.83
2022-08-05T22:22:26.811Z,18.94
2022-08-05T22:25:21.608Z,18.98
2022-08-05T22:28:04.990Z,19.03
2022-08-05T22:30:43.930Z,19.07
2022-08-05T22:33:57.169Z,19.01
2022-08-05T22:36:14.704Z,19.06
2022-08-05T22:38:42.782Z,19.05
2022-08-05T22:41:10.181Z,19.02
2022-08-05T22:43:38.183Z,19.00
2022-08-05T22:46:13.390Z,19.08
2022-08-05T22:48:47.749Z,19.01
2022-08-05T22:51:15.770Z,19.18
2022-08-05T22:53:49.962Z,19.22
2022-08-05T22:56:17.029Z,19.28
2022-08-05T22:58:43.809Z,19.36
2022-08-05T23:01:10.526Z,19.22
2022-08-05T23:03:59.107Z,19.03
2022-08-05T23:06:26.220Z,18.94
2022-08-05T23:08:52.949Z,18.97
2022-08-05T23:11:19.475Z,19.04
2022-08-05T23:13:45.922Z,19.03
2022-08-05T23:16:33.223Z,19.04
2022-08-05T23:19:00.159Z,18.98
2022-08-05T23:21:43.048Z,19.12
2022-08-05T23:24:14.812Z,19.05
2022-08-05T23:26:41.832Z,19.09
2022-08-05T23:29:10.691Z,19.02
2022-08-05T23:31:42.450Z,18.98
2022-08-05T23:34:08.982Z,19.00
2022-08-05T23:36:39.848Z,19.00
2022-08-05T23:39:17.278Z,18.96
2022-08-05T23:41:50.688Z,18.98
2022-08-05T23:44:17.232Z,18.98
2022-08-05T23:46:46.549Z,19.04
2022-08-05T23:49:16.206Z,19.07
2022-08-05T23:52:02.612Z,19.13
2022-08-05T23:54:34.226Z,19.08
2022-08-05T23:57:05.277Z,19.18
